Time;durP1;ratioP1;P1;durP2;ratioP2;P2;SDS_P1;SDS_P2;PMS_P1;PMS_P2;Temp;Humidity;BMP_temperature;BMP_pressure;BME280_temperature;BME280_humidity;BME280_pressure;Samples;Min_cycle;Max_cycle;Signal;HPM_P1;HPM_P2
2022/08/01 00:00:06;;;;;;;7.47;4.13;;;18.40;99.90;;;;;;5060999;28;20033;-62
2022/08/01 00:02:35;;;;;;;4.57;4.18;;;18.40;99.90;;;;;;5070573;28;20041;-62
2022/08/01 00:05:05;;;;;;;6.43;4.80;;;18.40;99.90;;;;;;5070340;28;20041;-62
2022/08/01 00:07:33;;;;;;;5.82;4.47;;;18.30;99.90;;;;;;5063287;28;20047;-62
2022/08/01 00:10:00;;;;;;;6.55;5.47;;;18.20;99.90;;;;;;5069182;28;20527;-62
2022/08/01 00:12:27;;;;;;;6.10;4.40;;;18.20;99.90;;;;;;5070453;28;20055;-62
2022/08/01 00:14:54;;;;;;;5.30;4.63;;;18.10;99.90;;;;;;5072289;28;20155;-61
2022/08/01 00:17:20;;;;;;;10.55;6.20;;;18.00;99.90;;;;;;5067959;28;20041;-62
2022/08/01 00:19:47;;;;;;;6.43;4.82;;;17.90;99.90;;;;;;5073586;28;20049;-62
2022/08/01 00:22:14;;;;;;;7.75;5.10;;;17.90;99.90;;;;;;5073293;28;20057;-62
2022/08/01 00:24:41;;;;;;;7.80;4.40;;;17.90;99.90;;;;;;5065412;28;20049;-62
2022/08/01 00:27:07;;;;;;;7.43;4.80;;;17.90;99.90;;;;;;5073912;28;20047;-61
2022/08/01 00:29:34;;;;;;;5.53;4.72;;;18.00;99.90;;;;;;5055872;28;20044;-62
2022/08/01 00:32:21;;;;;;;8.55;4.57;;;18.00;99.90;;;;;;5073741;28;20086;-61
2022/08/01 00:34:48;;;;;;;4.28;3.88;;;18.10;99.90;;;;;;5064882;28;20048;-62
2022/08/01 00:37:15;;;;;;;7.88;4.55;;;18.10;99.90;;;;;;5073702;28;20037;-62
2022/08/01 00:39:42;;;;;;;6.57;5.20;;;18.10;99.90;;;;;;5073616;28;20045;-61
2022/08/01 00:42:10;;;;;;;5.43;4.50;;;18.20;99.90;;;;;;5069171;28;20041;-62
2022/08/01 00:44:38;;;;;;;6.32;4.82;;;18.20;99.90;;;;;;5068945;28;20056;-61
2022/08/01 00:47:06;;;;;;;6.10;4.95;;;18.20;99.90;;;;;;5073523;28;20033;-61
2022/08/01 00:49:33;;;;;;;5.47;4.40;;;18.10;99.90;;;;;;5073731;28;20090;-62
2022/08/01 00:56:20;;;;;;;8.90;4.70;;;18.10;99.90;;;;;;5085404;28;20062;-60
2022/08/01 00:58:47;;;;;;;5.85;4.28;;;18.00;99.90;;;;;;5075389;28;20051;-60
2022/08/01 01:01:16;;;;;;;7.40;4.03;;;18.00;99.90;;;;;;5089751;28;20115;-60
2022/08/01 01:03:43;;;;;;;9.98;3.80;;;18.00;99.90;;;;;;5084829;28;20043;-60
2022/08/01 01:06:57;;;;;;;5.40;3.67;;;18.00;99.90;;;;;;5093600;28;20044;-60
2022/08/01 01:09:38;;;;;;;4.85;3.53;;;17.90;99.90;;;;;;5093301;28;20044;-60
2022/08/01 01:12:36;;;;;;;4.78;3.78;;;17.90;99.90;;;;;;5080470;28;20049;-59
2022/08/01 01:15:14;;;;;;;4.90;3.92;;;17.80;99.90;;;;;;5073156;28;20045;-60
2022/08/01 01:17:55;;;;;;;4.10;3.70;;;17.70;99.90;;;;;;5073223;28;20090;-59
2022/08/01 01:20:27;;;;;;;8.27;4.55;;;17.70;99.90;;;;;;5077591;28;20044;-60
2022/08/01 01:23:31;;;;;;;7.03;4.28;;;17.70;99.90;;;;;;5074150;28;20045;-59
2022/08/01 01:26:12;;;;;;;7.38;4.90;;;17.70;99.90;;;;;;5092262;28;20028;-60
2022/08/01 01:29:00;;;;;;;7.63;4.82;;;17.70;99.90;;;;;;5093083;28;20416;-60
2022/08/01 01:31:28;;;;;;;4.88;3.92;;;17.70;99.90;;;;;;5075386;28;20052;-59
2022/08/01 01:33:57;;;;;;;4.40;3.97;;;17.70;99.90;;;;;;5072454;28;20075;-59
2022/08/01 01:36:26;;;;;;;6.03;4.22;;;17.70;99.90;;;;;;5072696;28;20044;-59
2022/08/01 01:38:54;;;;;;;5.70;3.90;;;17.70;99.90;;;;;;5073653;28;20048;-60
2022/08/01 01:41:23;;;;;;;5.97;3.83;;;17.70;99.90;;;;;;5078071;28;20409;-60
2022/08/01 01:43:50;;;;;;;5.75;4.00;;;17.70;99.90;;;;;;5072731;28;20111;-60
2022/08/01 01:46:22;;;;;;;6.28;4.18;;;17.70;99.90;;;;;;5072551;28;20041;-60
2022/08/01 01:48:51;;;;;;;5.95;4.43;;;17.80;99.90;;;;;;5078094;28;20044;-60
2022/08/01 01:51:22;;;;;;;4.97;3.30;;;17.80;99.90;;;;;;5071862;28;20036;-59
2022/08/01 01:53:49;;;;;;;7.38;4.38;;;17.70;99.90;;;;;;5072356;28;20075;-59
2022/08/01 01:56:16;;;;;;;;;;;17.60;99.90;;;;;;5071385;28;20501;-60
2022/08/01 01:58:45;;;;;;;7.30;5.68;;;17.50;99.90;;;;;;5077211;28;19920;-59
2022/08/01 02:01:12;;;;;;;11.85;6.55;;;17.50;99.90;;;;;;5070476;28;20040;-59
2022/08/01 02:03:43;;;;;;;8.27;5.72;;;17.40;99.90;;;;;;5072184;28;20485;-60
2022/08/01 02:06:13;;;;;;;8.68;5.43;;;17.30;99.90;;;;;;5073673;28;20042;-60
2022/08/01 02:08:42;;;;;;;8.68;5.40;;;17.20;99.90;;;;;;5072006;28;20041;-60
2022/08/01 02:11:18;;;;;;;7.85;4.38;;;17.20;99.90;;;;;;5071451;28;20044;-59
2022/08/01 02:13:55;;;;;;;8.60;4.95;;;17.10;99.90;;;;;;5079510;28;20044;-59
2022/08/01 02:16:26;;;;;;;7.75;5.03;;;17.00;99.90;;;;;;5071995;28;20049;-59
2022/08/01 02:18:53;;;;;;;9.75;4.97;;;17.00;99.90;;;;;;5071824;28;20052;-59
2022/08/01 02:21:26;;;;;;;6.85;4.72;;;17.00;99.90;;;;;;5074968;28;20040;-59
2022/08/01 02:23:57;;;;;;;6.57;5.40;;;16.90;99.90;;;;;;5073454;28;20070;-59
2022/08/01 02:26:31;;;;;;;5.55;5.03;;;16.90;99.90;;;;;;5071912;28;20036;-60
2022/08/01 02:29:05;;;;;;;5.97;5.20;;;16.90;99.90;;;;;;5073364;28;20493;-59
2022/08/01 02:31:38;;;;;;;7.07;5.07;;;16.90;99.90;;;;;;5075830;28;20036;-59
2022/08/01 02:34:10;;;;;;;8.88;5.70;;;16.80;99.90;;;;;;5071674;28;20067;-59
2022/08/01 02:36:38;;;;;;;8.50;5.90;;;16.90;99.90;;;;;;5071673;28;20102;-59
2022/08/01 02:39:13;;;;;;;7.20;5.82;;;17.00;99.90;;;;;;5074475;28;20040;-59
2022/08/01 02:41:44;;;;;;;10.85;5.68;;;17.10;99.90;;;;;;5073994;28;20408;-59
2022/08/01 02:44:27;;;;;;;11.35;6.30;;;17.10;99.90;;;;;;5071560;28;20558;-59
2022/08/01 02:47:02;;;;;;;5.90;4.78;;;17.10;99.90;;;;;;5072638;28;20052;-59
2022/08/01 02:49:35;;;;;;;7.55;4.80;;;17.10;99.90;;;;;;5076316;28;20041;-60
2022/08/01 02:52:07;;;;;;;5.10;4.45;;;17.10;99.90;;;;;;5091135;28;20411;-59
2022/08/01 02:54:36;;;;;;;19.52;5.30;;;17.00;99.90;;;;;;5091581;28;20094;-60
2022/08/01 02:57:05;;;;;;;10.82;5.20;;;17.00;99.90;;;;;;5078388;28;20040;-59
2022/08/01 02:59:37;;;;;;;7.38;4.75;;;17.00;99.90;;;;;;5071045;28;20041;-59
2022/08/01 03:02:08;;;;;;;7.13;4.85;;;17.00;99.90;;;;;;5070813;28;20068;-59
2022/08/01 03:04:38;;;;;;;9.02;4.65;;;16.90;99.90;;;;;;5067243;28;20044;-60
2022/08/01 03:07:09;;;;;;;7.97;5.53;;;16.90;99.90;;;;;;5079333;28;20041;-59
2022/08/01 03:09:39;;;;;;;6.47;5.18;;;16.90;99.90;;;;;;5071236;28;20757;-59
2022/08/01 03:12:14;;;;;;;5.72;5.18;;;17.00;99.90;;;;;;5070232;28;20460;-59
2022/08/01 03:14:44;;;;;;;7.47;6.03;;;17.00;99.90;;;;;;5075888;28;20044;-59
2022/08/01 03:17:16;;;;;;;7.40;5.63;;;17.10;99.90;;;;;;5071215;28;20053;-59
2022/08/01 03:19:45;;;;;;;10.27;5.30;;;17.10;99.90;;;;;;5071246;28;20037;-59
2022/08/01 03:22:13;;;;;;;8.35;4.90;;;17.10;99.90;;;;;;5077308;28;20033;-59
2022/08/01 03:24:42;;;;;;;7.97;5.60;;;17.10;99.90;;;;;;5071307;28;20362;-59
2022/08/01 03:27:10;;;;;;;7.78;5.60;;;17.20;99.90;;;;;;5070948;28;20155;-60
2022/08/01 03:29:39;;;;;;;11.65;4.95;;;17.20;99.90;;;;;;5070989;28;20052;-59
2022/08/01 03:32:08;;;;;;;5.72;4.53;;;17.10;99.90;;;;;;5078313;28;20513;-59
2022/08/01 03:34:35;;;;;;;5.57;4.63;;;16.90;99.90;;;;;;5068794;28;20047;-59
2022/08/01 03:37:18;;;;;;;5.60;4.70;;;16.90;99.90;;;;;;5070508;28;20405;-59
2022/08/01 03:39:54;;;;;;;7.43;4.68;;;16.90;99.90;;;;;;5078132;28;20052;-60
2022/08/01 03:42:25;;;;;;;7.30;5.03;;;16.80;99.90;;;;;;5075852;28;20039;-60
2022/08/01 03:44:58;;;;;;;8.25;4.40;;;16.80;99.90;;;;;;5068866;28;20045;-59
2022/08/01 03:47:29;;;;;;;8.18;5.45;;;16.80;99.90;;;;;;5070984;28;20052;-59
2022/08/01 03:49:57;;;;;;;6.78;4.95;;;16.80;99.90;;;;;;5083288;28;20413;-59
2022/08/01 03:52:27;;;;;;;5.50;4.68;;;16.80;99.90;;;;;;5073370;28;20056;-59
2022/08/01 03:54:56;;;;;;;6.90;5.18;;;16.70;99.90;;;;;;5083014;28;20459;-60
2022/08/01 03:57:25;;;;;;;6.80;5.00;;;16.70;99.90;;;;;;5074218;28;20048;-59
2022/08/01 04:00:07;;;;;;;5.70;4.50;;;16.70;99.90;;;;;;5081235;28;20044;-59
2022/08/01 04:02:38;;;;;;;6.28;4.70;;;16.60;99.90;;;;;;5070138;28;20052;-59
2022/08/01 04:05:05;;;;;;;;;;;16.60;99.90;;;;;;5085297;28;20044;-59
2022/08/01 04:07:35;;;;;;;4.97;4.07;;;16.50;99.90;;;;;;5084807;28;19927;-59
2022/08/01 04:10:03;;;;;;;4.95;4.22;;;16.40;99.90;;;;;;5073572;28;20055;-59
2022/08/01 04:12:30;;;;;;;5.00;4.47;;;16.40;99.90;;;;;;5071990;28;20036;-59
2022/08/01 04:14:57;;;;;;;6.82;4.88;;;16.30;99.90;;;;;;5075632;28;20051;-59
2022/08/01 04:17:24;;;;;;;6.47;5.10;;;16.20;99.90;;;;;;5072950;28;20040;-59
2022/08/01 04:19:51;;;;;;;;;;;16.30;99.90;;;;;;5072212;28;20051;-59
2022/08/01 04:22:18;;;;;;;6.72;4.65;;;16.30;99.90;;;;;;5069391;28;19936;-60
2022/08/01 04:24:52;;;;;;;6.40;5.03;;;16.40;99.90;;;;;;5076531;28;20049;-60
2022/08/01 04:27:32;;;;;;;8.23;4.88;;;16.40;99.90;;;;;;5071473;28;20543;-60
2022/08/01 04:30:22;;;;;;;6.88;4.82;;;16.40;99.90;;;;;;5069832;28;20449;-60
2022/08/01 04:32:50;;;;;;;5.68;4.13;;;16.50;99.90;;;;;;5075812;28;20045;-60
2022/08/01 04:35:19;;;;;;;5.13;4.55;;;16.50;99.90;;;;;;5074619;28;20527;-60
2022/08/01 04:38:08;;;;;;;6.95;4.53;;;16.40;99.90;;;;;;5070526;28;20045;-60
2022/08/01 04:40:36;;;;;;;6.28;4.38;;;16.40;99.90;;;;;;5073907;28;20094;-60
2022/08/01 04:43:03;;;;;;;11.55;5.25;;;16.50;99.90;;;;;;5077195;28;20385;-60
2022/08/01 04:45:32;;;;;;;5.20;4.70;;;16.50;99.90;;;;;;5073720;28;20036;-61
2022/08/01 04:47:59;;;;;;;5.18;4.45;;;16.60;99.90;;;;;;5072515;28;20036;-60
2022/08/01 04:50:27;;;;;;;4.85;4.32;;;16.60;99.90;;;;;;5080169;28;20071;-60
2022/08/01 04:52:54;;;;;;;4.13;3.72;;;16.70;99.90;;;;;;5084999;28;20052;-61
2022/08/01 04:55:21;;;;;;;8.02;4.75;;;16.60;99.90;;;;;;5085630;28;20040;-60
2022/08/01 04:57:48;;;;;;;5.25;4.30;;;16.50;99.90;;;;;;5072909;28;20044;-61
2022/08/01 05:00:18;;;;;;;6.95;4.72;;;16.50;99.90;;;;;;5070611;28;20049;-61
2022/08/01 05:02:46;;;;;;;11.13;4.97;;;16.60;99.90;;;;;;5065148;28;20045;-61
2022/08/01 05:05:13;;;;;;;8.55;4.40;;;16.70;99.90;;;;;;5093251;28;20047;-61
2022/08/01 05:07:39;;;;;;;4.45;4.03;;;16.80;99.90;;;;;;5075708;28;20052;-61
2022/08/01 05:10:11;;;;;;;4.97;4.10;;;16.80;99.90;;;;;;5081976;28;20045;-61
2022/08/01 05:12:38;;;;;;;5.45;4.45;;;16.90;99.90;;;;;;5072284;28;20048;-61
2022/08/01 05:15:06;;;;;;;5.82;4.70;;;17.00;99.90;;;;;;5072542;28;20024;-60
2022/08/01 05:17:42;;;;;;;6.63;4.55;;;17.00;99.90;;;;;;5072748;28;20550;-60
2022/08/01 05:20:10;;;;;;;4.68;4.20;;;17.00;99.90;;;;;;5069114;28;20044;-61
2022/08/01 05:22:37;;;;;;;5.00;4.15;;;17.00;99.90;;;;;;5072102;28;20037;-60
2022/08/01 05:25:07;;;;;;;;;;;17.00;99.90;;;;;;5072983;28;20040;-61
2022/08/01 05:27:39;;;;;;;6.00;4.95;;;17.00;99.90;;;;;;5072917;28;19937;-61
2022/08/01 05:30:09;;;;;;;8.90;5.70;;;17.10;99.90;;;;;;5082808;28;20085;-61
2022/08/01 05:32:36;;;;;;;11.50;5.38;;;17.10;99.90;;;;;;5072967;28;20441;-60
2022/08/01 05:35:03;;;;;;;6.38;4.60;;;17.20;99.90;;;;;;5072885;28;20048;-60
2022/08/01 05:37:30;;;;;;;;;;;17.20;99.90;;;;;;5051189;28;20040;-61
2022/08/01 05:39:57;;;;;;;7.85;4.55;;;17.20;99.90;;;;;;5089571;28;19920;-61
2022/08/01 05:42:23;;;;;;;5.97;4.35;;;17.30;99.90;;;;;;5074754;28;20036;-61
2022/08/01 05:44:50;;;;;;;8.38;6.63;;;17.30;99.90;;;;;;5092640;28;20044;-61
2022/08/01 05:47:17;;;;;;;6.35;5.18;;;17.40;99.90;;;;;;5082124;28;20405;-60
2022/08/01 05:49:45;;;;;;;6.32;5.03;;;17.50;99.90;;;;;;5072249;28;20051;-61
2022/08/01 05:52:11;;;;;;;;;;;17.60;99.90;;;;;;5087811;28;20048;-61
2022/08/01 05:54:38;;;;;;;5.45;4.68;;;17.70;99.90;;;;;;5079779;28;19923;-60
2022/08/01 05:57:06;;;;;;;6.60;4.90;;;17.80;99.90;;;;;;5076042;28;20055;-60
2022/08/01 05:59:33;;;;;;;6.15;5.28;;;17.80;99.90;;;;;;5092127;28;20074;-60
2022/08/01 06:02:00;;;;;;;5.93;5.07;;;17.90;99.90;;;;;;5091860;28;20044;-60
2022/08/01 06:04:27;;;;;;;6.28;5.28;;;17.90;99.90;;;;;;5088798;28;20469;-60
2022/08/01 06:06:54;;;;;;;6.63;5.03;;;18.00;99.90;;;;;;5073398;28;20497;-60
2022/08/01 06:09:21;;;;;;;9.93;5.35;;;18.10;99.90;;;;;;5072113;28;20044;-60
2022/08/01 06:11:48;;;;;;;6.85;5.13;;;18.20;99.90;;;;;;5071251;28;20613;-60
2022/08/01 06:14:14;;;;;;;7.65;5.22;;;18.30;99.90;;;;;;5078795;28;20040;-60
2022/08/01 06:16:41;;;;;;;8.80;5.82;;;18.40;99.90;;;;;;5078269;28;20040;-60
2022/08/01 06:19:08;;;;;;;9.80;5.40;;;18.50;99.90;;;;;;5092207;28;20052;-60
2022/08/01 06:21:35;;;;;;;9.57;6.40;;;18.60;99.90;;;;;;5083132;28;20488;-60
2022/08/01 06:24:02;;;;;;;14.30;6.30;;;18.60;99.90;;;;;;5072017;28;20052;-60
2022/08/01 06:26:28;;;;;;;6.53;5.65;;;18.60;99.90;;;;;;5071617;28;20044;-60
2022/08/01 06:28:55;;;;;;;9.00;5.80;;;18.60;99.90;;;;;;5071730;28;20047;-60
2022/08/01 06:31:22;;;;;;;12.13;5.60;;;18.70;99.90;;;;;;5079009;28;20028;-60
2022/08/01 06:33:49;;;;;;;11.23;5.60;;;18.80;99.90;;;;;;5071317;28;20413;-60
2022/08/01 06:36:16;;;;;;;7.50;5.45;;;18.80;99.90;;;;;;5071662;28;20041;-60
2022/08/01 06:38:42;;;;;;;8.98;4.68;;;19.00;99.90;;;;;;5071755;28;20404;-60
2022/08/01 06:41:09;;;;;;;9.45;5.50;;;19.10;99.90;;;;;;5082490;28;20040;-60
2022/08/01 06:43:36;;;;;;;10.75;5.72;;;19.10;99.90;;;;;;5091831;28;20036;-60
2022/08/01 06:46:02;;;;;;;5.55;4.97;;;19.20;99.90;;;;;;5091633;28;20040;-60
2022/08/01 06:48:29;;;;;;;9.10;5.65;;;19.20;99.90;;;;;;5089029;28;20033;-60
2022/08/01 06:51:08;;;;;;;6.38;5.13;;;19.30;99.90;;;;;;5071940;28;20500;-60
2022/08/01 06:54:13;;;;;;;7.93;5.43;;;19.50;99.90;;;;;;5128046;22;20040;-62
2022/08/01 06:56:39;;;;;;;5.88;4.93;;;19.70;99.90;;;;;;5091521;28;20044;-63
2022/08/01 06:59:06;;;;;;;7.22;4.78;;;20.00;99.90;;;;;;5102189;28;20400;-63
2022/08/01 07:01:33;;;;;;;28.15;5.60;;;20.10;99.90;;;;;;5111236;28;20039;-63
2022/08/01 07:04:02;;;;;;;8.63;4.82;;;20.50;99.90;;;;;;5111776;28;20046;-63
2022/08/01 07:06:29;;;;;;;5.97;5.25;;;20.70;99.90;;;;;;5108917;28;20523;-63
2022/08/01 07:08:55;;;;;;;5.18;4.65;;;20.90;99.90;;;;;;5111746;28;20051;-63
2022/08/01 07:11:23;;;;;;;6.35;5.07;;;21.10;99.90;;;;;;5111125;28;20040;-62
2022/08/01 07:13:50;;;;;;;8.32;4.50;;;21.30;99.90;;;;;;5111655;28;20400;-63
2022/08/01 07:16:17;;;;;;;7.18;4.88;;;21.40;99.90;;;;;;5094676;28;20044;-63
2022/08/01 07:18:44;;;;;;;6.95;4.90;;;21.50;99.90;;;;;;5120230;28;20042;-63
2022/08/01 07:21:11;;;;;;;9.65;4.72;;;21.60;99.90;;;;;;5131871;28;20039;-63
2022/08/01 07:23:57;;;;;;;7.10;4.65;;;21.70;99.90;;;;;;5131593;27;20450;-63
2022/08/01 07:26:27;;;;;;;9.38;4.90;;;21.50;99.90;;;;;;5123734;27;20048;-63
2022/08/01 07:28:54;;;;;;;6.00;4.80;;;21.50;99.90;;;;;;5134449;27;20043;-63
2022/08/01 07:31:20;;;;;;;9.90;5.20;;;21.40;99.90;;;;;;5135932;27;20054;-63
2022/08/01 07:33:47;;;;;;;9.43;4.70;;;21.30;99.90;;;;;;5108445;27;20031;-63
2022/08/01 07:36:16;;;;;;;5.93;4.70;;;21.30;99.90;;;;;;5127303;27;20031;-63
2022/08/01 07:38:44;;;;;;;5.47;4.75;;;21.30;99.90;;;;;;5135911;27;20057;-63
2022/08/01 07:41:11;;;;;;;5.63;5.03;;;21.40;99.90;;;;;;5135722;27;20043;-63
2022/08/01 07:43:38;;;;;;;5.18;4.65;;;21.50;99.90;;;;;;5121083;27;20057;-63
2022/08/01 07:46:05;;;;;;;4.82;4.43;;;21.70;99.90;;;;;;5115536;28;20032;-63
2022/08/01 07:48:32;;;;;;;5.63;4.90;;;21.70;99.90;;;;;;5115482;28;20077;-63
2022/08/01 07:50:58;;;;;;;;;;;21.80;99.90;;;;;;5115546;27;20219;-63
2022/08/01 07:53:25;;;;;;;7.43;5.07;;;21.80;99.90;;;;;;5126947;27;19942;-63
2022/08/01 07:55:52;;;;;;;10.13;4.88;;;21.90;99.90;;;;;;5135811;27;20058;-63
2022/08/01 07:58:19;;;;;;;6.63;4.72;;;22.00;99.90;;;;;;5135462;27;20058;-63
2022/08/01 08:00:46;;;;;;;4.53;4.13;;;22.20;99.90;;;;;;5126601;27;20451;-63
2022/08/01 08:03:12;;;;;;;5.20;4.68;;;22.30;99.90;;;;;;5126911;27;20050;-63
2022/08/01 08:05:39;;;;;;;7.72;4.47;;;22.30;99.90;;;;;;5135584;27;20046;-63
2022/08/01 08:08:26;;;;;;;8.15;4.60;;;22.50;99.90;;;;;;5135739;27;20114;-63
2022/08/01 08:10:52;;;;;;;5.65;4.15;;;22.70;99.90;;;;;;5124248;27;20056;-64
2022/08/01 08:13:19;;;;;;;6.68;4.78;;;22.60;99.90;;;;;;5135618;27;20043;-63
2022/08/01 08:15:46;;;;;;;;;;;22.80;99.90;;;;;;5135873;27;20051;-63
2022/08/01 08:18:14;;;;;;;5.35;4.65;;;22.80;99.90;;;;;;5128827;27;19980;-63
2022/08/01 08:20:41;;;;;;;6.20;4.70;;;22.80;99.90;;;;;;5126046;27;20039;-63
2022/08/01 08:24:19;;;;;;;7.95;4.97;;;22.80;99.90;;;;;;5135065;27;20035;-64
2022/08/01 08:26:10;;;;;;;7.13;4.82;;;22.80;99.90;;;;;;5135105;27;20480;-64
2022/08/01 08:28:37;;;;;;;5.78;4.70;;;22.90;99.90;;;;;;5123143;27;20044;-63
2022/08/01 08:31:06;;;;;;;5.45;4.50;;;23.00;99.90;;;;;;5093601;28;20115;-64
2022/08/01 08:33:54;;;;;;;5.90;4.87;;;23.00;99.90;;;;;;5093888;28;20056;-63
2022/08/01 08:36:20;;;;;;;4.35;3.95;;;23.20;99.90;;;;;;5105760;27;20051;-63
2022/08/01 08:38:57;;;;;;;5.38;4.63;;;23.20;99.90;;;;;;5126597;27;20039;-63
2022/08/01 08:41:24;;;;;;;6.90;4.80;;;23.40;99.90;;;;;;5134426;27;20054;-63
2022/08/01 08:43:50;;;;;;;5.03;4.45;;;23.40;99.90;;;;;;5134625;27;20403;-63
2022/08/01 08:46:19;;;;;;;8.02;4.72;;;23.50;99.90;;;;;;5111452;27;20035;-64
2022/08/01 08:48:55;;;;;;;4.82;4.43;;;23.50;99.90;;;;;;5126246;27;20035;-63
2022/08/01 08:51:25;;;;;;;5.68;4.40;;;23.60;99.90;;;;;;5134278;27;20114;-64
2022/08/01 08:53:55;;;;;;;5.75;4.82;;;23.70;99.90;;;;;;5133663;27;20058;-63
2022/08/01 08:56:25;;;;;;;6.07;4.53;;;23.90;99.90;;;;;;5116248;27;20052;-64
2022/08/01 08:58:54;;;;;;;6.32;4.10;;;24.20;99.90;;;;;;5132916;27;20050;-63
2022/08/01 09:01:21;;;;;;;;;;;24.30;99.90;;;;;;5134544;27;20043;-64
2022/08/01 09:03:48;;;;;;;4.95;3.90;;;24.30;99.90;;;;;;5123812;27;20278;-63
2022/08/01 09:06:15;;;;;;;5.55;4.25;;;24.30;99.90;;;;;;5126869;27;20039;-63
2022/08/01 09:08:42;;;;;;;5.50;4.00;;;24.30;99.90;;;;;;5134407;27;20047;-63
2022/08/01 09:11:09;;;;;;;6.80;3.80;;;24.40;99.90;;;;;;5126397;27;20046;-63
2022/08/01 09:13:36;;;;;;;;;;;24.60;99.90;;;;;;5125929;27;20043;-63
2022/08/01 09:16:17;;;;;;;4.65;4.25;;;24.60;99.90;;;;;;5134154;27;19976;-63
2022/08/01 09:18:44;;;;;;;4.75;3.65;;;24.60;99.90;;;;;;5134255;27;20046;-63
2022/08/01 09:21:22;;;;;;;4.55;3.95;;;24.60;99.90;;;;;;5120134;27;20122;-63
2022/08/01 09:23:50;;;;;;;7.10;4.30;;;24.80;99.90;;;;;;5125329;27;20448;-63
2022/08/01 09:26:34;;;;;;;5.75;3.65;;;24.90;99.90;;;;;;5134175;27;20073;-64
2022/08/01 09:29:16;;;;;;;11.45;3.67;;;25.30;99.90;;;;;;5126826;27;20027;-64
2022/08/01 09:32:06;;;;;;;5.38;3.80;;;25.40;99.90;;;;;;5124736;27;20096;-63
2022/08/01 09:34:34;;;;;;;6.38;3.75;;;25.50;99.90;;;;;;5134218;27;20040;-64
2022/08/01 09:37:02;;;;;;;4.28;3.85;;;25.70;99.90;;;;;;5133884;27;20062;-63
2022/08/01 09:39:36;;;;;;;6.35;3.70;;;25.60;99.90;;;;;;5119860;27;20039;-63
2022/08/01 09:42:22;;;;;;;6.10;3.45;;;25.60;99.90;;;;;;5124706;27;20039;-63
2022/08/01 09:44:55;;;;;;;5.13;3.67;;;25.60;99.90;;;;;;5133434;27;20406;-64
2022/08/01 09:47:39;;;;;;;4.00;3.60;;;25.60;99.90;;;;;;5131831;27;20042;-64
2022/08/01 09:50:07;;;;;;;5.60;3.70;;;25.70;99.90;;;;;;5116472;27;20035;-63
2022/08/01 09:52:37;;;;;;;6.35;3.63;;;25.70;99.90;;;;;;5133480;27;20043;-64
2022/08/01 09:55:07;;;;;;;7.68;3.63;;;25.90;99.90;;;;;;5133484;27;20499;-64
2022/08/01 09:57:34;;;;;;;4.13;3.55;;;26.10;99.90;;;;;;5128781;27;20053;-63
2022/08/01 10:00:01;;;;;;;;;;;26.00;99.90;;;;;;5124840;27;20411;-64
2022/08/01 10:02:39;;;;;;;4.57;3.15;;;25.90;99.90;;;;;;5133049;27;19991;-63
2022/08/01 10:05:09;;;;;;;3.90;3.05;;;25.90;99.90;;;;;;5133268;27;20376;-64
2022/08/01 10:07:59;;;;;;;5.63;3.10;;;25.80;99.90;;;;;;5121569;27;20507;-64
2022/08/01 10:10:26;;;;;;;3.92;3.53;;;26.00;99.90;;;;;;5132550;27;20050;-63
2022/08/01 10:12:58;;;;;;;7.78;3.20;;;26.10;99.90;;;;;;5133047;27;20521;-63
2022/08/01 10:15:26;;;;;;;5.18;3.40;;;26.20;99.90;;;;;;5123858;27;20047;-63
2022/08/01 10:18:05;;;;;;;5.10;3.15;;;26.30;99.90;;;;;;5124489;27;20074;-64
2022/08/01 10:20:47;;;;;;;4.68;3.17;;;26.30;99.90;;;;;;5132565;27;20067;-63
2022/08/01 10:23:15;;;;;;;6.22;3.10;;;26.40;99.90;;;;;;5132894;27;20503;-63
2022/08/01 10:25:44;;;;;;;3.05;2.75;;;26.60;99.90;;;;;;5120371;27;20535;-63
2022/08/01 10:28:18;;;;;;;4.03;3.00;;;26.60;99.90;;;;;;5132889;27;20076;-64
2022/08/01 10:30:47;;;;;;;7.57;3.15;;;26.80;99.90;;;;;;5132440;27;20063;-64
2022/08/01 10:33:17;;;;;;;5.10;3.40;;;27.10;99.90;;;;;;5124522;27;20093;-64
2022/08/01 10:36:05;;;;;;;5.60;2.80;;;26.90;99.90;;;;;;5132348;27;20095;-64
2022/08/01 10:38:35;;;;;;;4.70;3.20;;;26.80;99.90;;;;;;5132673;27;20118;-63
2022/08/01 10:41:04;;;;;;;7.63;3.15;;;27.10;99.90;;;;;;5111366;27;20043;-64
2022/08/01 10:43:32;;;;;;;5.72;2.80;;;27.30;99.90;;;;;;5115505;27;20062;-64
2022/08/01 10:46:03;;;;;;;3.00;2.70;;;27.30;99.90;;;;;;5131969;27;20035;-64
2022/08/01 10:48:42;;;;;;;3.53;2.45;;;27.70;99.90;;;;;;5132411;27;20035;-63
2022/08/01 10:51:11;;;;;;;5.68;2.33;;;27.80;99.90;;;;;;5117833;27;20042;-63
2022/08/01 10:53:50;;;;;;;3.53;2.33;;;27.70;99.40;;;;;;5129367;27;20111;-64
2022/08/01 10:56:22;;;;;;;3.03;2.40;;;27.50;99.90;;;;;;5132418;27;20138;-63
2022/08/01 10:59:02;;;;;;;4.80;2.70;;;27.40;99.90;;;;;;5120911;27;20047;-63
2022/08/01 11:01:37;;;;;;;4.13;2.58;;;27.50;99.90;;;;;;5127679;27;20127;-63
2022/08/01 11:04:13;;;;;;;4.20;2.58;;;27.60;99.90;;;;;;5132756;27;20039;-63
2022/08/01 11:07:04;;;;;;;2.80;1.90;;;27.70;99.90;;;;;;5117321;27;20052;-64
2022/08/01 11:09:47;;;;;;;3.33;2.28;;;27.80;99.90;;;;;;5123666;28;20078;-63
2022/08/01 11:12:18;;;;;;;3.60;2.22;;;27.60;99.90;;;;;;5113585;28;20441;-63
2022/08/01 11:15:00;;;;;;;3.33;2.45;;;27.60;99.90;;;;;;5115382;28;20044;-63
2022/08/01 11:17:47;;;;;;;5.45;2.10;;;27.50;99.90;;;;;;5123610;28;20039;-63
2022/08/01 11:20:21;;;;;;;4.05;2.20;;;27.40;99.90;;;;;;5131562;28;20336;-63
2022/08/01 11:23:01;;;;;;;3.53;2.00;;;27.20;99.90;;;;;;5129014;28;20502;-63
2022/08/01 11:25:35;;;;;;;7.50;1.85;;;27.40;99.40;;;;;;5123510;28;20042;-63
2022/08/01 11:28:24;;;;;;;2.33;2.10;;;27.40;98.70;;;;;;5132193;28;20065;-63
2022/08/01 11:31:12;;;;;;;3.53;1.95;;;27.10;99.90;;;;;;5131610;28;20497;-63
2022/08/01 11:33:42;;;;;;;2.45;1.80;;;26.40;99.90;;;;;;5123924;28;20407;-63
2022/08/01 11:36:12;;;;;;;2.17;1.98;;;26.20;99.90;;;;;;5117033;28;20051;-63
2022/08/01 11:38:46;;;;;;;2.58;2.10;;;26.50;99.30;;;;;;5131979;28;20049;-63
2022/08/01 11:41:23;;;;;;;7.78;2.38;;;26.90;99.80;;;;;;5123981;28;20505;-63
2022/08/01 11:44:15;;;;;;;3.17;1.73;;;27.30;99.80;;;;;;5114428;28;20039;-63
2022/08/01 11:46:58;;;;;;;4.72;2.13;;;27.60;99.10;;;;;;5131937;28;20040;-63
2022/08/01 11:49:38;;;;;;;2.50;2.08;;;27.50;99.30;;;;;;5131842;28;20118;-63
2022/08/01 11:52:08;;;;;;;2.05;1.85;;;27.60;99.90;;;;;;5119073;28;20040;-63
2022/08/01 11:54:37;;;;;;;3.33;1.63;;;27.70;99.10;;;;;;5127723;28;20078;-63
2022/08/01 11:57:17;;;;;;;1.98;1.70;;;27.50;98.10;;;;;;5131643;28;20055;-63
2022/08/01 11:59:55;;;;;;;2.92;1.77;;;27.30;98.00;;;;;;5117894;28;20040;-63
2022/08/01 12:02:39;;;;;;;2.65;1.80;;;27.30;98.20;;;;;;5131635;28;20054;-63
2022/08/01 12:05:07;;;;;;;;;;;27.30;97.70;;;;;;5132267;28;20122;-63
2022/08/01 12:07:38;;;;;;;1.92;1.60;;;27.30;97.60;;;;;;5118628;28;19924;-63
2022/08/01 12:10:08;;;;;;;5.10;1.67;;;27.40;97.00;;;;;;5095420;28;20396;-63
2022/08/01 12:12:37;;;;;;;3.85;1.80;;;27.50;98.50;;;;;;5096836;28;20043;-63
2022/08/01 12:15:08;;;;;;;3.88;1.75;;;27.50;98.10;;;;;;5113578;28;20044;-63
2022/08/01 12:17:41;;;;;;;2.42;1.80;;;27.30;98.20;;;;;;5119073;27;20114;-63
2022/08/01 12:20:29;;;;;;;2.05;1.73;;;27.10;98.00;;;;;;5094570;28;20044;-63
2022/08/01 12:22:59;;;;;;;2.83;1.70;;;27.00;97.40;;;;;;5094080;28;20040;-63
2022/08/01 12:25:27;;;;;;;4.80;2.00;;;27.00;97.00;;;;;;5107144;27;20510;-63
2022/08/01 12:27:54;;;;;;;2.35;1.90;;;27.00;97.40;;;;;;5126711;27;20035;-63
2022/08/01 12:30:24;;;;;;;4.40;2.10;;;27.10;96.90;;;;;;5134799;27;20887;-63
2022/08/01 12:32:53;;;;;;;3.97;1.95;;;26.90;97.90;;;;;;5128068;27;20040;-63
2022/08/01 12:35:23;;;;;;;3.95;1.60;;;26.70;98.00;;;;;;5126731;27;20039;-63
2022/08/01 12:37:55;;;;;;;3.08;1.80;;;26.70;97.40;;;;;;5116857;27;20039;-63
2022/08/01 12:40:31;;;;;;;4.45;2.13;;;26.50;97.90;;;;;;5134529;27;20048;-63
2022/08/01 12:43:03;;;;;;;4.05;1.50;;;26.30;98.40;;;;;;5123693;27;20051;-63
2022/08/01 12:45:42;;;;;;;3.38;1.58;;;26.10;97.40;;;;;;5134940;27;20039;-63
2022/08/01 12:48:24;;;;;;;6.32;1.95;;;26.00;97.50;;;;;;5134921;27;20078;-63
2022/08/01 12:50:52;;;;;;;1.92;1.60;;;25.90;97.00;;;;;;5118127;27;20099;-63
2022/08/01 12:53:40;;;;;;;3.72;1.50;;;25.90;96.80;;;;;;5124213;22;20555;-59
2022/08/01 13:00:40;;;;;;;3.13;1.60;;;25.90;96.50;;;;;;5059446;28;20505;-60
2022/08/01 13:03:09;;;;;;;3.00;1.75;;;26.00;97.40;;;;;;5104169;28;20055;-61
2022/08/01 13:05:54;;;;;;;4.10;2.10;;;25.90;97.80;;;;;;5096176;28;20101;-61
2022/08/01 13:08:24;;;;;;;3.28;1.75;;;25.80;96.30;;;;;;5101706;28;20074;-61
2022/08/01 13:11:01;;;;;;;2.47;1.45;;;25.80;96.30;;;;;;5094423;28;20450;-60
2022/08/01 13:13:38;;;;;;;2.92;1.60;;;25.80;95.90;;;;;;5093411;28;20052;-61
2022/08/01 13:16:07;;;;;;;2.05;1.58;;;25.90;97.20;;;;;;5093371;28;20090;-61
2022/08/01 13:18:51;;;;;;;2.05;1.50;;;25.80;96.60;;;;;;5092597;28;20048;-61
2022/08/01 13:21:19;;;;;;;2.58;1.55;;;25.80;97.90;;;;;;5091739;28;20051;-61